sensor_id;sensor_type;location;lat;lon;timestamp;P1;durP1;ratioP1;P2;durP2;ratioP2
75997;SDS011;64685;48.762;44.822;2022-12-16T00:00:25;29.38;;;11.30;;
75997;SDS011;64685;48.762;44.822;2022-12-16T00:02:51;15.77;;;8.15;;
75997;SDS011;64685;48.762;44.822;2022-12-16T00:05:16;34.40;;;12.63;;
75997;SDS011;64685;48.762;44.822;2022-12-16T00:07:45;21.88;;;7.90;;
75997;SDS011;64685;48.762;44.822;2022-12-16T00:10:11;25.65;;;10.75;;
75997;SDS011;64685;48.762;44.822;2022-12-16T00:12:37;20.90;;;9.02;;
75997;SDS011;64685;48.762;44.822;2022-12-16T00:15:03;16.40;;;6.35;;
75997;SDS011;64685;48.762;44.822;2022-12-16T00:17:30;22.95;;;7.28;;
75997;SDS011;64685;48.762;44.822;2022-12-16T00:19:56;18.13;;;6.13;;
75997;SDS011;64685;48.762;44.822;2022-12-16T00:22:22;22.23;;;6.93;;
75997;SDS011;64685;48.762;44.822;2022-12-16T00:24:48;11.73;;;4.43;;
75997;SDS011;64685;48.762;44.822;2022-12-16T00:27:14;13.90;;;5.50;;
75997;SDS011;64685;48.762;44.822;2022-12-16T00:29:39;15.82;;;4.90;;
75997;SDS011;64685;48.762;44.822;2022-12-16T00:32:05;20.10;;;6.03;;
75997;SDS011;64685;48.762;44.822;2022-12-16T00:34:31;23.27;;;7.85;;
75997;SDS011;64685;48.762;44.822;2022-12-16T00:36:57;19.40;;;6.72;;
75997;SDS011;64685;48.762;44.822;2022-12-16T00:39:23;18.15;;;7.80;;
75997;SDS011;64685;48.762;44.822;2022-12-16T00:41:49;18.60;;;5.72;;
75997;SDS011;64685;48.762;44.822;2022-12-16T00:44:15;14.88;;;5.80;;
75997;SDS011;64685;48.762;44.822;2022-12-16T00:46:41;18.10;;;4.55;;
75997;SDS011;64685;48.762;44.822;2022-12-16T00:49:07;12.88;;;4.38;;
75997;SDS011;64685;48.762;44.822;2022-12-16T00:51:33;16.27;;;5.40;;
75997;SDS011;64685;48.762;44.822;2022-12-16T00:53:59;13.25;;;4.57;;
75997;SDS011;64685;48.762;44.822;2022-12-16T00:56:25;17.88;;;6.30;;
75997;SDS011;64685;48.762;44.822;2022-12-16T00:58:50;18.38;;;5.72;;
75997;SDS011;64685;48.762;44.822;2022-12-16T01:01:16;16.00;;;6.25;;
75997;SDS011;64685;48.762;44.822;2022-12-16T01:03:42;17.60;;;7.35;;
75997;SDS011;64685;48.762;44.822;2022-12-16T01:06:12;17.35;;;6.68;;
75997;SDS011;64685;48.762;44.822;2022-12-16T01:08:38;21.75;;;6.43;;
75997;SDS011;64685;48.762;44.822;2022-12-16T01:11:04;16.58;;;4.32;;
75997;SDS011;64685;48.762;44.822;2022-12-16T01:13:30;16.10;;;4.50;;
75997;SDS011;64685;48.762;44.822;2022-12-16T01:15:59;12.05;;;4.40;;
75997;SDS011;64685;48.762;44.822;2022-12-16T01:18:25;12.18;;;4.50;;
75997;SDS011;64685;48.762;44.822;2022-12-16T01:20:51;11.82;;;4.28;;
75997;SDS011;64685;48.762;44.822;2022-12-16T01:23:17;13.05;;;5.40;;
75997;SDS011;64685;48.762;44.822;2022-12-16T01:25:43;11.55;;;3.60;;
75997;SDS011;64685;48.762;44.822;2022-12-16T01:28:09;13.30;;;4.25;;
75997;SDS011;64685;48.762;44.822;2022-12-16T01:30:34;13.95;;;4.03;;
75997;SDS011;64685;48.762;44.822;2022-12-16T01:33:00;9.77;;;3.35;;
75997;SDS011;64685;48.762;44.822;2022-12-16T01:35:26;9.32;;;3.70;;
75997;SDS011;64685;48.762;44.822;2022-12-16T01:37:52;6.85;;;3.10;;
75997;SDS011;64685;48.762;44.822;2022-12-16T01:40:19;12.68;;;2.80;;
75997;SDS011;64685;48.762;44.822;2022-12-16T01:42:45;7.00;;;2.20;;
75997;SDS011;64685;48.762;44.822;2022-12-16T01:45:53;9.75;;;2.88;;
75997;SDS011;64685;48.762;44.822;2022-12-16T01:48:02;7.35;;;3.15;;
75997;SDS011;64685;48.762;44.822;2022-12-16T01:50:31;14.18;;;3.75;;
75997;SDS011;64685;48.762;44.822;2022-12-16T01:52:58;9.05;;;3.53;;
75997;SDS011;64685;48.762;44.822;2022-12-16T01:55:30;9.18;;;3.25;;
75997;SDS011;64685;48.762;44.822;2022-12-16T01:58:16;11.85;;;3.42;;
75997;SDS011;64685;48.762;44.822;2022-12-16T02:00:43;9.30;;;3.08;;
75997;SDS011;64685;48.762;44.822;2022-12-16T02:03:09;11.70;;;3.33;;
75997;SDS011;64685;48.762;44.822;2022-12-16T02:05:36;7.68;;;2.83;;
75997;SDS011;64685;48.762;44.822;2022-12-16T02:13:03;12.07;;;3.45;;
75997;SDS011;64685;48.762;44.822;2022-12-16T02:24:22;7.25;;;2.28;;
75997;SDS011;64685;48.762;44.822;2022-12-16T02:33:55;11.50;;;3.17;;
75997;SDS011;64685;48.762;44.822;2022-12-16T02:38:58;10.15;;;2.90;;
75997;SDS011;64685;48.762;44.822;2022-12-16T02:41:28;12.52;;;3.10;;
75997;SDS011;64685;48.762;44.822;2022-12-16T02:44:03;8.88;;;3.28;;
75997;SDS011;64685;48.762;44.822;2022-12-16T02:46:31;8.75;;;2.88;;
75997;SDS011;64685;48.762;44.822;2022-12-16T02:49:58;6.72;;;2.53;;
75997;SDS011;64685;48.762;44.822;2022-12-16T02:51:53;11.40;;;3.00;;
75997;SDS011;64685;48.762;44.822;2022-12-16T02:54:20;7.25;;;3.13;;
75997;SDS011;64685;48.762;44.822;2022-12-16T03:03:16;11.18;;;3.97;;
75997;SDS011;64685;48.762;44.822;2022-12-16T03:07:39;10.52;;;3.00;;
75997;SDS011;64685;48.762;44.822;2022-12-16T03:12:32;7.03;;;2.33;;
75997;SDS011;64685;48.762;44.822;2022-12-16T03:14:58;7.50;;;1.85;;
75997;SDS011;64685;48.762;44.822;2022-12-16T03:17:24;8.85;;;3.28;;
75997;SDS011;64685;48.762;44.822;2022-12-16T03:22:36;6.03;;;1.42;;
75997;SDS011;64685;48.762;44.822;2022-12-16T03:25:04;7.43;;;2.88;;
75997;SDS011;64685;48.762;44.822;2022-12-16T03:27:32;7.15;;;2.35;;
75997;SDS011;64685;48.762;44.822;2022-12-16T03:30:06;9.50;;;3.80;;
75997;SDS011;64685;48.762;44.822;2022-12-16T03:37:34;9.98;;;3.03;;
75997;SDS011;64685;48.762;44.822;2022-12-16T03:40:03;8.10;;;3.33;;
75997;SDS011;64685;48.762;44.822;2022-12-16T03:42:30;8.88;;;2.65;;
75997;SDS011;64685;48.762;44.822;2022-12-16T03:44:56;7.78;;;2.67;;
75997;SDS011;64685;48.762;44.822;2022-12-16T03:47:24;7.50;;;2.88;;
75997;SDS011;64685;48.762;44.822;2022-12-16T03:49:50;7.47;;;2.08;;
75997;SDS011;64685;48.762;44.822;2022-12-16T03:52:16;6.97;;;2.33;;
75997;SDS011;64685;48.762;44.822;2022-12-16T03:54:41;11.38;;;3.70;;
75997;SDS011;64685;48.762;44.822;2022-12-16T03:57:07;3.65;;;1.45;;
75997;SDS011;64685;48.762;44.822;2022-12-16T03:59:33;6.85;;;2.50;;
75997;SDS011;64685;48.762;44.822;2022-12-16T04:01:59;11.68;;;3.88;;
75997;SDS011;64685;48.762;44.822;2022-12-16T04:04:24;9.27;;;3.17;;
75997;SDS011;64685;48.762;44.822;2022-12-16T04:06:50;10.82;;;3.17;;
75997;SDS011;64685;48.762;44.822;2022-12-16T04:09:36;8.57;;;2.90;;
75997;SDS011;64685;48.762;44.822;2022-12-16T04:12:02;8.98;;;2.28;;
75997;SDS011;64685;48.762;44.822;2022-12-16T04:14:46;10.82;;;3.38;;
75997;SDS011;64685;48.762;44.822;2022-12-16T04:17:30;9.23;;;3.38;;
75997;SDS011;64685;48.762;44.822;2022-12-16T04:20:15;9.32;;;2.97;;
75997;SDS011;64685;48.762;44.822;2022-12-16T04:22:59;9.93;;;3.53;;
75997;SDS011;64685;48.762;44.822;2022-12-16T04:25:44;9.05;;;2.70;;
75997;SDS011;64685;48.762;44.822;2022-12-16T04:28:10;10.52;;;3.25;;
75997;SDS011;64685;48.762;44.822;2022-12-16T04:30:35;8.32;;;2.95;;
75997;SDS011;64685;48.762;44.822;2022-12-16T04:33:02;12.48;;;3.78;;
75997;SDS011;64685;48.762;44.822;2022-12-16T04:35:47;9.93;;;3.53;;
75997;SDS011;64685;48.762;44.822;2022-12-16T04:38:31;11.25;;;4.00;;
75997;SDS011;64685;48.762;44.822;2022-12-16T04:41:16;10.77;;;3.78;;
75997;SDS011;64685;48.762;44.822;2022-12-16T04:44:00;23.90;;;11.63;;
75997;SDS011;64685;48.762;44.822;2022-12-16T04:46:44;17.35;;;8.23;;
75997;SDS011;64685;48.762;44.822;2022-12-16T04:49:28;24.10;;;11.75;;
75997;SDS011;64685;48.762;44.822;2022-12-16T04:52:13;29.60;;;14.48;;
75997;SDS011;64685;48.762;44.822;2022-12-16T04:54:57;19.25;;;9.60;;
75997;SDS011;64685;48.762;44.822;2022-12-16T04:57:51;15.82;;;7.28;;
75997;SDS011;64685;48.762;44.822;2022-12-16T05:00:35;13.05;;;4.30;;
75997;SDS011;64685;48.762;44.822;2022-12-16T05:03:20;11.50;;;4.15;;
75997;SDS011;64685;48.762;44.822;2022-12-16T05:06:04;10.32;;;3.70;;
75997;SDS011;64685;48.762;44.822;2022-12-16T05:08:48;16.05;;;4.18;;
75997;SDS011;64685;48.762;44.822;2022-12-16T05:11:32;13.40;;;4.57;;
75997;SDS011;64685;48.762;44.822;2022-12-16T05:14:17;10.73;;;3.22;;
75997;SDS011;64685;48.762;44.822;2022-12-16T05:17:01;11.23;;;4.10;;
75997;SDS011;64685;48.762;44.822;2022-12-16T05:19:45;12.93;;;3.10;;
75997;SDS011;64685;48.762;44.822;2022-12-16T05:22:30;8.40;;;3.20;;
75997;SDS011;64685;48.762;44.822;2022-12-16T05:25:14;10.25;;;3.22;;
75997;SDS011;64685;48.762;44.822;2022-12-16T05:27:59;9.30;;;2.65;;
75997;SDS011;64685;48.762;44.822;2022-12-16T05:30:43;9.90;;;3.10;;
75997;SDS011;64685;48.762;44.822;2022-12-16T05:33:28;7.15;;;2.22;;
75997;SDS011;64685;48.762;44.822;2022-12-16T05:36:12;8.82;;;3.97;;
75997;SDS011;64685;48.762;44.822;2022-12-16T05:38:56;7.95;;;2.58;;
75997;SDS011;64685;48.762;44.822;2022-12-16T05:41:40;9.43;;;3.47;;
75997;SDS011;64685;48.762;44.822;2022-12-16T05:44:25;10.32;;;3.55;;
75997;SDS011;64685;48.762;44.822;2022-12-16T05:47:10;10.50;;;4.13;;
75997;SDS011;64685;48.762;44.822;2022-12-16T05:49:54;12.93;;;4.07;;
75997;SDS011;64685;48.762;44.822;2022-12-16T05:52:38;11.40;;;3.75;;
75997;SDS011;64685;48.762;44.822;2022-12-16T05:55:22;9.55;;;2.97;;
75997;SDS011;64685;48.762;44.822;2022-12-16T05:58:07;12.27;;;3.85;;
75997;SDS011;64685;48.762;44.822;2022-12-16T06:00:51;10.50;;;3.17;;
75997;SDS011;64685;48.762;44.822;2022-12-16T06:03:35;9.30;;;3.28;;
75997;SDS011;64685;48.762;44.822;2022-12-16T06:06:20;8.30;;;3.33;;
75997;SDS011;64685;48.762;44.822;2022-12-16T06:09:04;10.18;;;3.80;;
75997;SDS011;64685;48.762;44.822;2022-12-16T06:11:49;13.52;;;3.28;;
75997;SDS011;64685;48.762;44.822;2022-12-16T06:14:33;9.23;;;3.47;;
75997;SDS011;64685;48.762;44.822;2022-12-16T06:17:17;10.63;;;4.15;;
75997;SDS011;64685;48.762;44.822;2022-12-16T06:20:02;7.80;;;2.65;;
75997;SDS011;64685;48.762;44.822;2022-12-16T06:22:52;14.93;;;4.53;;
75997;SDS011;64685;48.762;44.822;2022-12-16T06:25:37;13.18;;;4.15;;
75997;SDS011;64685;48.762;44.822;2022-12-16T06:28:21;14.23;;;4.55;;
75997;SDS011;64685;48.762;44.822;2022-12-16T06:31:06;9.80;;;3.78;;
75997;SDS011;64685;48.762;44.822;2022-12-16T06:33:50;12.20;;;3.50;;
75997;SDS011;64685;48.762;44.822;2022-12-16T06:36:34;10.05;;;3.42;;
75997;SDS011;64685;48.762;44.822;2022-12-16T06:42:53;20.35;;;3.90;;
75997;SDS011;64685;48.762;44.822;2022-12-16T06:45:37;10.82;;;3.65;;
75997;SDS011;64685;48.762;44.822;2022-12-16T06:48:21;8.63;;;2.92;;
75997;SDS011;64685;48.762;44.822;2022-12-16T06:51:06;11.77;;;3.72;;
75997;SDS011;64685;48.762;44.822;2022-12-16T06:53:50;12.00;;;3.85;;
75997;SDS011;64685;48.762;44.822;2022-12-16T06:56:34;12.13;;;4.15;;
75997;SDS011;64685;48.762;44.822;2022-12-16T06:59:18;9.40;;;3.47;;
75997;SDS011;64685;48.762;44.822;2022-12-16T07:02:03;11.48;;;4.35;;
75997;SDS011;64685;48.762;44.822;2022-12-16T07:04:47;10.40;;;3.70;;
75997;SDS011;64685;48.762;44.822;2022-12-16T07:07:31;8.73;;;2.70;;
75997;SDS011;64685;48.762;44.822;2022-12-16T07:10:17;13.32;;;4.18;;
75997;SDS011;64685;48.762;44.822;2022-12-16T07:13:01;13.27;;;4.97;;
75997;SDS011;64685;48.762;44.822;2022-12-16T07:15:46;12.85;;;5.18;;
75997;SDS011;64685;48.762;44.822;2022-12-16T07:18:30;10.77;;;4.20;;
75997;SDS011;64685;48.762;44.822;2022-12-16T07:21:14;11.93;;;3.75;;
75997;SDS011;64685;48.762;44.822;2022-12-16T07:23:58;9.40;;;3.90;;
75997;SDS011;64685;48.762;44.822;2022-12-16T07:26:42;13.65;;;5.10;;
75997;SDS011;64685;48.762;44.822;2022-12-16T07:29:27;11.68;;;4.25;;
75997;SDS011;64685;48.762;44.822;2022-12-16T07:32:11;14.07;;;4.28;;
75997;SDS011;64685;48.762;44.822;2022-12-16T07:34:55;11.25;;;3.50;;
75997;SDS011;64685;48.762;44.822;2022-12-16T10:15:18;14.00;;;4.45;;
75997;SDS011;64685;48.762;44.822;2022-12-16T10:18:04;12.77;;;5.32;;
75997;SDS011;64685;48.762;44.822;2022-12-16T10:20:56;12.45;;;5.05;;
75997;SDS011;64685;48.762;44.822;2022-12-16T10:29:37;16.25;;;6.20;;
75997;SDS011;64685;48.762;44.822;2022-12-16T10:35:21;15.25;;;4.88;;
75997;SDS011;64685;48.762;44.822;2022-12-16T10:38:06;15.75;;;5.80;;
75997;SDS011;64685;48.762;44.822;2022-12-16T10:40:58;16.95;;;6.50;;
75997;SDS011;64685;48.762;44.822;2022-12-16T10:43:44;16.00;;;6.32;;
75997;SDS011;64685;48.762;44.822;2022-12-16T10:46:31;19.90;;;6.78;;
75997;SDS011;64685;48.762;44.822;2022-12-16T10:49:16;15.43;;;7.10;;
75997;SDS011;64685;48.762;44.822;2022-12-16T10:52:00;15.95;;;6.97;;
75997;SDS011;64685;48.762;44.822;2022-12-16T11:03:29;15.88;;;5.45;;
75997;SDS011;64685;48.762;44.822;2022-12-16T11:06:47;14.00;;;6.50;;
75997;SDS011;64685;48.762;44.822;2022-12-16T11:15:46;12.30;;;5.32;;
75997;SDS011;64685;48.762;44.822;2022-12-16T11:18:20;14.52;;;5.05;;
75997;SDS011;64685;48.762;44.822;2022-12-16T11:26:56;16.45;;;5.93;;
75997;SDS011;64685;48.762;44.822;2022-12-16T11:32:55;15.77;;;5.00;;
75997;SDS011;64685;48.762;44.822;2022-12-16T11:35:41;15.38;;;6.05;;
75997;SDS011;64685;48.762;44.822;2022-12-16T11:38:28;18.30;;;7.00;;
75997;SDS011;64685;48.762;44.822;2022-12-16T11:41:21;16.50;;;6.45;;
75997;SDS011;64685;48.762;44.822;2022-12-16T11:44:08;15.70;;;6.82;;
75997;SDS011;64685;48.762;44.822;2022-12-16T11:46:53;14.82;;;5.93;;
75997;SDS011;64685;48.762;44.822;2022-12-16T11:49:37;18.45;;;5.93;;
75997;SDS011;64685;48.762;44.822;2022-12-16T11:52:21;16.23;;;6.57;;
75997;SDS011;64685;48.762;44.822;2022-12-16T11:55:16;18.23;;;6.63;;
75997;SDS011;64685;48.762;44.822;2022-12-16T12:00:51;17.35;;;7.10;;
75997;SDS011;64685;48.762;44.822;2022-12-16T12:03:40;21.90;;;7.13;;
75997;SDS011;64685;48.762;44.822;2022-12-16T12:09:25;16.52;;;6.18;;
75997;SDS011;64685;48.762;44.822;2022-12-16T12:20:57;20.75;;;7.22;;
75997;SDS011;64685;48.762;44.822;2022-12-16T12:26:31;20.33;;;8.27;;
75997;SDS011;64685;48.762;44.822;2022-12-16T12:37:57;20.92;;;9.13;;
75997;SDS011;64685;48.762;44.822;2022-12-16T12:49:30;19.75;;;8.00;;
75997;SDS011;64685;48.762;44.822;2022-12-16T12:52:28;17.33;;;6.90;;
75997;SDS011;64685;48.762;44.822;2022-12-16T12:55:24;17.10;;;6.45;;
75997;SDS011;64685;48.762;44.822;2022-12-16T12:58:11;15.00;;;4.82;;
75997;SDS011;64685;48.762;44.822;2022-12-16T13:00:57;16.40;;;7.70;;
75997;SDS011;64685;48.762;44.822;2022-12-16T13:06:27;11.55;;;4.53;;
75997;SDS011;64685;48.762;44.822;2022-12-16T13:20:46;15.68;;;6.15;;
75997;SDS011;64685;48.762;44.822;2022-12-16T13:23:32;13.98;;;4.68;;
75997;SDS011;64685;48.762;44.822;2022-12-16T13:26:21;9.45;;;3.38;;
75997;SDS011;64685;48.762;44.822;2022-12-16T13:29:19;16.17;;;6.07;;
75997;SDS011;64685;48.762;44.822;2022-12-16T13:35:37;24.70;;;10.68;;
75997;SDS011;64685;48.762;44.822;2022-12-16T13:38:03;13.82;;;5.28;;
75997;SDS011;64685;48.762;44.822;2022-12-16T13:40:58;17.85;;;6.28;;
75997;SDS011;64685;48.762;44.822;2022-12-16T13:43:58;16.85;;;7.13;;
75997;SDS011;64685;48.762;44.822;2022-12-16T13:46:47;19.85;;;8.00;;
75997;SDS011;64685;48.762;44.822;2022-12-16T13:55:17;15.07;;;5.85;;
75997;SDS011;64685;48.762;44.822;2022-12-16T13:58:04;16.75;;;5.65;;
75997;SDS011;64685;48.762;44.822;2022-12-16T14:00:58;15.18;;;5.57;;
75997;SDS011;64685;48.762;44.822;2022-12-16T14:03:45;17.17;;;6.13;;
75997;SDS011;64685;48.762;44.822;2022-12-16T14:06:30;15.27;;;7.13;;
75997;SDS011;64685;48.762;44.822;2022-12-16T14:09:49;15.23;;;6.05;;
75997;SDS011;64685;48.762;44.822;2022-12-16T14:15:24;15.43;;;5.80;;
75997;SDS011;64685;48.762;44.822;2022-12-16T14:18:29;12.82;;;4.88;;
75997;SDS011;64685;48.762;44.822;2022-12-16T14:21:15;15.73;;;5.78;;
75997;SDS011;64685;48.762;44.822;2022-12-16T14:24:03;16.85;;;5.85;;
75997;SDS011;64685;48.762;44.822;2022-12-16T14:26:50;18.83;;;5.88;;
75997;SDS011;64685;48.762;44.822;2022-12-16T14:29:34;18.98;;;7.20;;
75997;SDS011;64685;48.762;44.822;2022-12-16T14:35:03;14.93;;;5.75;;
75997;SDS011;64685;48.762;44.822;2022-12-16T14:37:48;17.10;;;6.57;;
75997;SDS011;64685;48.762;44.822;2022-12-16T14:40:32;18.73;;;6.13;;
75997;SDS011;64685;48.762;44.822;2022-12-16T14:43:17;17.83;;;6.15;;
75997;SDS011;64685;48.762;44.822;2022-12-16T14:46:02;21.33;;;6.97;;
75997;SDS011;64685;48.762;44.822;2022-12-16T14:48:47;26.95;;;12.75;;
75997;SDS011;64685;48.762;44.822;2022-12-16T14:51:32;24.90;;;10.30;;
75997;SDS011;64685;48.762;44.822;2022-12-16T14:57:05;24.42;;;12.70;;
75997;SDS011;64685;48.762;44.822;2022-12-16T15:00:00;25.35;;;11.18;;
75997;SDS011;64685;48.762;44.822;2022-12-16T15:02:45;28.23;;;11.52;;
75997;SDS011;64685;48.762;44.822;2022-12-16T15:05:30;36.85;;;13.57;;
75997;SDS011;64685;48.762;44.822;2022-12-16T15:08:15;31.50;;;13.55;;
75997;SDS011;64685;48.762;44.822;2022-12-16T15:11:00;32.30;;;13.52;;
75997;SDS011;64685;48.762;44.822;2022-12-16T15:13:45;21.65;;;10.70;;
75997;SDS011;64685;48.762;44.822;2022-12-16T15:16:32;30.85;;;12.35;;
75997;SDS011;64685;48.762;44.822;2022-12-16T15:19:18;27.50;;;13.07;;
75997;SDS011;64685;48.762;44.822;2022-12-16T15:22:03;20.83;;;8.88;;
75997;SDS011;64685;48.762;44.822;2022-12-16T15:24:47;20.10;;;8.43;;
75997;SDS011;64685;48.762;44.822;2022-12-16T15:27:35;20.85;;;7.65;;
75997;SDS011;64685;48.762;44.822;2022-12-16T15:30:33;19.38;;;7.40;;
75997;SDS011;64685;48.762;44.822;2022-12-16T15:33:19;19.85;;;7.82;;
75997;SDS011;64685;48.762;44.822;2022-12-16T15:36:04;19.80;;;7.53;;
75997;SDS011;64685;48.762;44.822;2022-12-16T15:38:49;20.52;;;8.45;;
75997;SDS011;64685;48.762;44.822;2022-12-16T15:41:34;21.30;;;7.82;;
75997;SDS011;64685;48.762;44.822;2022-12-16T15:44:25;23.70;;;9.38;;
75997;SDS011;64685;48.762;44.822;2022-12-16T15:47:24;20.58;;;8.90;;
75997;SDS011;64685;48.762;44.822;2022-12-16T15:50:12;20.50;;;8.07;;
75997;SDS011;64685;48.762;44.822;2022-12-16T15:53:12;21.60;;;9.23;;
75997;SDS011;64685;48.762;44.822;2022-12-16T15:55:57;19.83;;;8.30;;
75997;SDS011;64685;48.762;44.822;2022-12-16T15:58:41;20.25;;;7.72;;
75997;SDS011;64685;48.762;44.822;2022-12-16T16:01:26;19.02;;;8.23;;
75997;SDS011;64685;48.762;44.822;2022-12-16T16:04:18;22.35;;;8.98;;
75997;SDS011;64685;48.762;44.822;2022-12-16T16:07:02;21.25;;;8.82;;
75997;SDS011;64685;48.762;44.822;2022-12-16T16:09:47;20.88;;;8.90;;
75997;SDS011;64685;48.762;44.822;2022-12-16T16:12:31;19.35;;;8.13;;
75997;SDS011;64685;48.762;44.822;2022-12-16T16:15:15;20.10;;;8.27;;
75997;SDS011;64685;48.762;44.822;2022-12-16T16:18:01;19.58;;;8.95;;
75997;SDS011;64685;48.762;44.822;2022-12-16T16:20:46;17.85;;;7.85;;
75997;SDS011;64685;48.762;44.822;2022-12-16T16:23:30;22.23;;;7.78;;
75997;SDS011;64685;48.762;44.822;2022-12-16T16:26:16;16.88;;;7.88;;
75997;SDS011;64685;48.762;44.822;2022-12-16T16:29:01;18.08;;;7.32;;
75997;SDS011;64685;48.762;44.822;2022-12-16T16:31:45;24.00;;;8.80;;
75997;SDS011;64685;48.762;44.822;2022-12-16T16:34:29;18.70;;;7.50;;
75997;SDS011;64685;48.762;44.822;2022-12-16T16:37:14;20.70;;;7.72;;
75997;SDS011;64685;48.762;44.822;2022-12-16T16:39:59;21.25;;;7.60;;
75997;SDS011;64685;48.762;44.822;2022-12-16T16:42:44;26.73;;;8.30;;
75997;SDS011;64685;48.762;44.822;2022-12-16T16:45:28;19.17;;;7.93;;
75997;SDS011;64685;48.762;44.822;2022-12-16T16:48:13;19.67;;;7.80;;
75997;SDS011;64685;48.762;44.822;2022-12-16T16:50:58;18.52;;;7.93;;
75997;SDS011;64685;48.762;44.822;2022-12-16T16:53:43;18.45;;;7.80;;
75997;SDS011;64685;48.762;44.822;2022-12-16T16:56:27;19.45;;;7.78;;
75997;SDS011;64685;48.762;44.822;2022-12-16T16:59:13;20.33;;;8.60;;
75997;SDS011;64685;48.762;44.822;2022-12-16T17:01:57;19.02;;;8.35;;
75997;SDS011;64685;48.762;44.822;2022-12-16T17:04:42;17.63;;;8.10;;
75997;SDS011;64685;48.762;44.822;2022-12-16T17:07:26;18.48;;;7.38;;
75997;SDS011;64685;48.762;44.822;2022-12-16T17:10:10;21.25;;;8.82;;
75997;SDS011;64685;48.762;44.822;2022-12-16T17:12:54;18.33;;;7.78;;
75997;SDS011;64685;48.762;44.822;2022-12-16T17:15:39;17.02;;;7.47;;
75997;SDS011;64685;48.762;44.822;2022-12-16T17:18:23;19.55;;;6.70;;
75997;SDS011;64685;48.762;44.822;2022-12-16T17:21:07;16.35;;;6.88;;
75997;SDS011;64685;48.762;44.822;2022-12-16T17:23:52;16.35;;;6.13;;
75997;SDS011;64685;48.762;44.822;2022-12-16T17:26:40;18.58;;;6.55;;
75997;SDS011;64685;48.762;44.822;2022-12-16T17:29:24;11.70;;;4.78;;
75997;SDS011;64685;48.762;44.822;2022-12-16T17:32:09;19.30;;;6.40;;
75997;SDS011;64685;48.762;44.822;2022-12-16T17:34:54;16.30;;;6.68;;
75997;SDS011;64685;48.762;44.822;2022-12-16T17:37:38;20.65;;;7.28;;
75997;SDS011;64685;48.762;44.822;2022-12-16T17:40:23;18.80;;;6.65;;
75997;SDS011;64685;48.762;44.822;2022-12-16T17:43:07;15.55;;;6.32;;
75997;SDS011;64685;48.762;44.822;2022-12-16T17:45:55;17.70;;;6.78;;
75997;SDS011;64685;48.762;44.822;2022-12-16T17:48:40;17.48;;;6.80;;
75997;SDS011;64685;48.762;44.822;2022-12-16T17:51:24;14.48;;;5.95;;
75997;SDS011;64685;48.762;44.822;2022-12-16T17:54:08;17.80;;;6.30;;
75997;SDS011;64685;48.762;44.822;2022-12-16T17:56:53;13.25;;;5.90;;
75997;SDS011;64685;48.762;44.822;2022-12-16T17:59:37;18.70;;;6.25;;
75997;SDS011;64685;48.762;44.822;2022-12-16T18:02:21;17.67;;;7.40;;
75997;SDS011;64685;48.762;44.822;2022-12-16T18:05:05;16.65;;;6.15;;
75997;SDS011;64685;48.762;44.822;2022-12-16T18:07:49;17.80;;;7.10;;
75997;SDS011;64685;48.762;44.822;2022-12-16T18:10:34;17.65;;;6.78;;
75997;SDS011;64685;48.762;44.822;2022-12-16T18:13:18;17.65;;;6.18;;
75997;SDS011;64685;48.762;44.822;2022-12-16T18:16:02;17.77;;;6.35;;
75997;SDS011;64685;48.762;44.822;2022-12-16T18:18:50;19.42;;;6.80;;
75997;SDS011;64685;48.762;44.822;2022-12-16T18:21:36;16.25;;;6.63;;
75997;SDS011;64685;48.762;44.822;2022-12-16T18:24:20;19.00;;;7.30;;
75997;SDS011;64685;48.762;44.822;2022-12-16T18:27:04;15.65;;;6.03;;
75997;SDS011;64685;48.762;44.822;2022-12-16T18:29:48;25.10;;;9.48;;
75997;SDS011;64685;48.762;44.822;2022-12-16T18:32:33;20.67;;;9.68;;
75997;SDS011;64685;48.762;44.822;2022-12-16T18:35:17;24.25;;;10.30;;
75997;SDS011;64685;48.762;44.822;2022-12-16T18:38:01;25.58;;;10.20;;
75997;SDS011;64685;48.762;44.822;2022-12-16T18:40:46;28.08;;;12.50;;
75997;SDS011;64685;48.762;44.822;2022-12-16T18:43:30;33.08;;;13.38;;
75997;SDS011;64685;48.762;44.822;2022-12-16T18:46:14;33.90;;;13.65;;
75997;SDS011;64685;48.762;44.822;2022-12-16T18:48:58;29.45;;;13.02;;
75997;SDS011;64685;48.762;44.822;2022-12-16T18:51:43;30.83;;;12.85;;
75997;SDS011;64685;48.762;44.822;2022-12-16T18:54:27;39.67;;;14.40;;
75997;SDS011;64685;48.762;44.822;2022-12-16T18:57:11;34.90;;;14.15;;
75997;SDS011;64685;48.762;44.822;2022-12-16T18:59:56;42.42;;;13.68;;
75997;SDS011;64685;48.762;44.822;2022-12-16T19:02:40;37.42;;;15.57;;
75997;SDS011;64685;48.762;44.822;2022-12-16T19:05:24;35.10;;;15.15;;
75997;SDS011;64685;48.762;44.822;2022-12-16T19:08:08;38.13;;;16.58;;
75997;SDS011;64685;48.762;44.822;2022-12-16T19:10:56;38.00;;;15.90;;
75997;SDS011;64685;48.762;44.822;2022-12-16T19:13:41;40.42;;;15.18;;
75997;SDS011;64685;48.762;44.822;2022-12-16T19:16:25;37.70;;;13.75;;
75997;SDS011;64685;48.762;44.822;2022-12-16T19:19:09;45.10;;;16.80;;
75997;SDS011;64685;48.762;44.822;2022-12-16T19:21:53;29.30;;;12.75;;
75997;SDS011;64685;48.762;44.822;2022-12-16T19:24:38;30.15;;;12.23;;
75997;SDS011;64685;48.762;44.822;2022-12-16T19:27:22;35.17;;;12.98;;
75997;SDS011;64685;48.762;44.822;2022-12-16T19:30:06;27.95;;;11.85;;
75997;SDS011;64685;48.762;44.822;2022-12-16T19:32:51;22.48;;;9.88;;
75997;SDS011;64685;48.762;44.822;2022-12-16T19:35:35;17.80;;;6.78;;
75997;SDS011;64685;48.762;44.822;2022-12-16T19:38:19;17.10;;;6.13;;
75997;SDS011;64685;48.762;44.822;2022-12-16T19:41:04;13.88;;;4.88;;
75997;SDS011;64685;48.762;44.822;2022-12-16T19:43:48;15.95;;;5.72;;
75997;SDS011;64685;48.762;44.822;2022-12-16T19:46:33;19.70;;;6.88;;
75997;SDS011;64685;48.762;44.822;2022-12-16T19:49:17;17.20;;;6.32;;
75997;SDS011;64685;48.762;44.822;2022-12-16T19:52:01;14.40;;;6.75;;
75997;SDS011;64685;48.762;44.822;2022-12-16T19:54:45;15.57;;;6.22;;
75997;SDS011;64685;48.762;44.822;2022-12-16T19:57:30;16.55;;;5.65;;
75997;SDS011;64685;48.762;44.822;2022-12-16T20:00:14;19.10;;;6.95;;
75997;SDS011;64685;48.762;44.822;2022-12-16T20:02:58;16.00;;;6.45;;
75997;SDS011;64685;48.762;44.822;2022-12-16T20:05:42;22.27;;;7.43;;
75997;SDS011;64685;48.762;44.822;2022-12-16T20:08:27;17.98;;;5.72;;
75997;SDS011;64685;48.762;44.822;2022-12-16T20:11:11;19.63;;;6.20;;
75997;SDS011;64685;48.762;44.822;2022-12-16T20:13:55;16.30;;;6.68;;
75997;SDS011;64685;48.762;44.822;2022-12-16T20:16:40;22.67;;;7.35;;
75997;SDS011;64685;48.762;44.822;2022-12-16T20:19:24;17.25;;;6.30;;
75997;SDS011;64685;48.762;44.822;2022-12-16T20:22:09;19.45;;;7.65;;
75997;SDS011;64685;48.762;44.822;2022-12-16T20:24:53;23.55;;;11.00;;
75997;SDS011;64685;48.762;44.822;2022-12-16T20:27:38;20.00;;;10.57;;
75997;SDS011;64685;48.762;44.822;2022-12-16T20:30:22;22.58;;;9.48;;
75997;SDS011;64685;48.762;44.822;2022-12-16T20:33:10;21.42;;;7.03;;
75997;SDS011;64685;48.762;44.822;2022-12-16T20:35:55;12.50;;;5.50;;
75997;SDS011;64685;48.762;44.822;2022-12-16T20:38:40;18.65;;;7.20;;
75997;SDS011;64685;48.762;44.822;2022-12-16T20:41:24;15.00;;;4.93;;
75997;SDS011;64685;48.762;44.822;2022-12-16T20:44:12;15.77;;;6.35;;